sensor_id;sensor_type;location;lat;lon;timestamp;P1;durP1;ratioP1;P2;durP2;ratioP2
49458;SDS011;35354;51.296;16.924;2023-07-24T00:00:20;5.65;;;4.65;;
49458;SDS011;35354;51.296;16.924;2023-07-24T00:02:45;5.68;;;4.32;;
49458;SDS011;35354;51.296;16.924;2023-07-24T00:05:11;5.65;;;4.50;;
49458;SDS011;35354;51.296;16.924;2023-07-24T00:07:36;5.78;;;4.50;;
49458;SDS011;35354;51.296;16.924;2023-07-24T00:10:02;5.80;;;4.50;;
49458;SDS011;35354;51.296;16.924;2023-07-24T00:12:28;7.63;;;4.55;;
49458;SDS011;35354;51.296;16.924;2023-07-24T00:14:53;6.45;;;4.80;;
49458;SDS011;35354;51.296;16.924;2023-07-24T00:17:19;5.80;;;4.22;;
49458;SDS011;35354;51.296;16.924;2023-07-24T00:19:44;5.45;;;4.78;;
49458;SDS011;35354;51.296;16.924;2023-07-24T00:22:09;6.63;;;5.15;;
49458;SDS011;35354;51.296;16.924;2023-07-24T00:24:34;6.68;;;4.75;;
49458;SDS011;35354;51.296;16.924;2023-07-24T00:27:00;5.60;;;4.60;;
49458;SDS011;35354;51.296;16.924;2023-07-24T00:29:26;4.85;;;4.20;;
49458;SDS011;35354;51.296;16.924;2023-07-24T00:31:51;5.93;;;4.82;;
49458;SDS011;35354;51.296;16.924;2023-07-24T00:34:17;6.28;;;4.70;;
49458;SDS011;35354;51.296;16.924;2023-07-24T00:36:42;8.75;;;4.55;;
49458;SDS011;35354;51.296;16.924;2023-07-24T00:39:07;7.35;;;4.93;;
49458;SDS011;35354;51.296;16.924;2023-07-24T00:41:33;9.52;;;4.47;;
49458;SDS011;35354;51.296;16.924;2023-07-24T00:43:58;5.20;;;4.70;;
49458;SDS011;35354;51.296;16.924;2023-07-24T00:46:24;5.57;;;4.63;;
49458;SDS011;35354;51.296;16.924;2023-07-24T00:48:49;5.47;;;4.20;;
49458;SDS011;35354;51.296;16.924;2023-07-24T00:51:16;4.85;;;3.90;;
49458;SDS011;35354;51.296;16.924;2023-07-24T00:53:41;6.32;;;4.45;;
49458;SDS011;35354;51.296;16.924;2023-07-24T00:56:07;6.22;;;4.45;;
49458;SDS011;35354;51.296;16.924;2023-07-24T00:58:33;5.50;;;4.55;;
49458;SDS011;35354;51.296;16.924;2023-07-24T01:01:02;5.75;;;4.55;;
49458;SDS011;35354;51.296;16.924;2023-07-24T01:03:31;6.22;;;4.80;;
49458;SDS011;35354;51.296;16.924;2023-07-24T01:05:58;7.90;;;4.90;;
49458;SDS011;35354;51.296;16.924;2023-07-24T01:08:26;5.10;;;4.32;;
49458;SDS011;35354;51.296;16.924;2023-07-24T01:10:51;9.27;;;5.07;;
49458;SDS011;35354;51.296;16.924;2023-07-24T01:13:18;6.22;;;5.15;;
49458;SDS011;35354;51.296;16.924;2023-07-24T01:16:08;5.03;;;4.47;;
49458;SDS011;35354;51.296;16.924;2023-07-24T01:18:37;5.50;;;4.38;;
49458;SDS011;35354;51.296;16.924;2023-07-24T01:21:04;6.63;;;4.40;;
49458;SDS011;35354;51.296;16.924;2023-07-24T01:26:34;6.43;;;5.10;;
49458;SDS011;35354;51.296;16.924;2023-07-24T01:29:00;6.05;;;4.65;;
49458;SDS011;35354;51.296;16.924;2023-07-24T01:31:25;7.10;;;4.93;;
49458;SDS011;35354;51.296;16.924;2023-07-24T01:33:51;7.20;;;4.95;;
49458;SDS011;35354;51.296;16.924;2023-07-24T01:36:16;5.40;;;4.03;;
49458;SDS011;35354;51.296;16.924;2023-07-24T01:38:43;6.75;;;4.75;;
49458;SDS011;35354;51.296;16.924;2023-07-24T01:41:09;6.68;;;4.88;;
49458;SDS011;35354;51.296;16.924;2023-07-24T01:43:35;5.97;;;4.45;;
49458;SDS011;35354;51.296;16.924;2023-07-24T01:46:00;6.00;;;4.18;;
49458;SDS011;35354;51.296;16.924;2023-07-24T01:48:26;6.38;;;4.95;;
49458;SDS011;35354;51.296;16.924;2023-07-24T01:50:51;8.30;;;5.45;;
49458;SDS011;35354;51.296;16.924;2023-07-24T01:53:16;6.20;;;4.65;;
49458;SDS011;35354;51.296;16.924;2023-07-24T01:55:41;6.47;;;4.72;;
49458;SDS011;35354;51.296;16.924;2023-07-24T01:58:07;7.38;;;4.28;;
49458;SDS011;35354;51.296;16.924;2023-07-24T02:00:32;6.53;;;4.78;;
49458;SDS011;35354;51.296;16.924;2023-07-24T02:02:58;5.07;;;4.32;;
49458;SDS011;35354;51.296;16.924;2023-07-24T02:05:23;6.80;;;4.95;;
49458;SDS011;35354;51.296;16.924;2023-07-24T02:07:49;6.30;;;4.63;;
49458;SDS011;35354;51.296;16.924;2023-07-24T02:10:14;6.40;;;4.15;;
49458;SDS011;35354;51.296;16.924;2023-07-24T02:12:39;5.38;;;4.30;;
49458;SDS011;35354;51.296;16.924;2023-07-24T02:15:05;6.95;;;4.45;;
49458;SDS011;35354;51.296;16.924;2023-07-24T02:17:31;9.05;;;4.88;;
49458;SDS011;35354;51.296;16.924;2023-07-24T02:19:56;8.90;;;5.15;;
49458;SDS011;35354;51.296;16.924;2023-07-24T02:22:22;5.72;;;4.88;;
49458;SDS011;35354;51.296;16.924;2023-07-24T02:24:47;5.65;;;4.40;;
49458;SDS011;35354;51.296;16.924;2023-07-24T02:27:13;9.23;;;4.70;;
49458;SDS011;35354;51.296;16.924;2023-07-24T02:29:49;8.88;;;5.60;;
49458;SDS011;35354;51.296;16.924;2023-07-24T02:32:14;10.65;;;4.65;;
49458;SDS011;35354;51.296;16.924;2023-07-24T02:34:39;9.43;;;5.05;;
49458;SDS011;35354;51.296;16.924;2023-07-24T02:37:05;5.75;;;4.55;;
49458;SDS011;35354;51.296;16.924;2023-07-24T02:39:30;8.85;;;5.13;;
49458;SDS011;35354;51.296;16.924;2023-07-24T02:41:55;6.72;;;5.22;;
49458;SDS011;35354;51.296;16.924;2023-07-24T02:44:21;5.30;;;4.45;;
49458;SDS011;35354;51.296;16.924;2023-07-24T02:46:46;7.30;;;5.43;;
49458;SDS011;35354;51.296;16.924;2023-07-24T02:49:11;11.60;;;7.88;;
49458;SDS011;35354;51.296;16.924;2023-07-24T02:51:37;8.55;;;6.10;;
49458;SDS011;35354;51.296;16.924;2023-07-24T02:54:02;6.90;;;4.88;;
49458;SDS011;35354;51.296;16.924;2023-07-24T02:56:27;6.97;;;5.25;;
49458;SDS011;35354;51.296;16.924;2023-07-24T02:58:53;7.30;;;5.03;;
49458;SDS011;35354;51.296;16.924;2023-07-24T03:01:18;13.95;;;5.35;;
49458;SDS011;35354;51.296;16.924;2023-07-24T03:03:43;7.15;;;5.18;;
49458;SDS011;35354;51.296;16.924;2023-07-24T03:06:09;5.97;;;4.90;;
49458;SDS011;35354;51.296;16.924;2023-07-24T03:08:34;6.45;;;5.00;;
49458;SDS011;35354;51.296;16.924;2023-07-24T03:10:59;8.18;;;4.95;;
49458;SDS011;35354;51.296;16.924;2023-07-24T03:13:27;5.00;;;4.50;;
49458;SDS011;35354;51.296;16.924;2023-07-24T03:15:53;7.80;;;5.38;;
49458;SDS011;35354;51.296;16.924;2023-07-24T03:18:20;10.43;;;5.32;;
49458;SDS011;35354;51.296;16.924;2023-07-24T03:20:45;5.75;;;4.65;;
49458;SDS011;35354;51.296;16.924;2023-07-24T03:23:10;7.47;;;4.78;;
49458;SDS011;35354;51.296;16.924;2023-07-24T03:25:36;8.48;;;4.78;;
49458;SDS011;35354;51.296;16.924;2023-07-24T03:28:01;5.75;;;5.10;;
49458;SDS011;35354;51.296;16.924;2023-07-24T03:30:27;7.20;;;4.95;;
49458;SDS011;35354;51.296;16.924;2023-07-24T03:32:53;7.30;;;4.60;;
49458;SDS011;35354;51.296;16.924;2023-07-24T03:35:18;7.07;;;5.32;;
49458;SDS011;35354;51.296;16.924;2023-07-24T03:37:43;7.25;;;5.13;;
49458;SDS011;35354;51.296;16.924;2023-07-24T03:40:09;8.73;;;5.28;;
49458;SDS011;35354;51.296;16.924;2023-07-24T03:42:34;9.18;;;5.72;;
49458;SDS011;35354;51.296;16.924;2023-07-24T03:44:59;8.02;;;5.32;;
49458;SDS011;35354;51.296;16.924;2023-07-24T03:47:25;9.63;;;5.07;;
49458;SDS011;35354;51.296;16.924;2023-07-24T03:49:50;8.95;;;5.63;;
49458;SDS011;35354;51.296;16.924;2023-07-24T03:52:16;8.10;;;4.78;;
49458;SDS011;35354;51.296;16.924;2023-07-24T03:54:41;7.90;;;5.20;;
49458;SDS011;35354;51.296;16.924;2023-07-24T03:57:07;7.57;;;5.65;;
49458;SDS011;35354;51.296;16.924;2023-07-24T03:59:32;8.00;;;5.30;;
49458;SDS011;35354;51.296;16.924;2023-07-24T04:01:58;7.40;;;5.20;;
49458;SDS011;35354;51.296;16.924;2023-07-24T04:04:24;10.02;;;5.57;;
49458;SDS011;35354;51.296;16.924;2023-07-24T04:06:49;7.10;;;5.03;;
49458;SDS011;35354;51.296;16.924;2023-07-24T04:09:15;7.88;;;5.43;;
49458;SDS011;35354;51.296;16.924;2023-07-24T04:11:40;9.82;;;5.10;;
49458;SDS011;35354;51.296;16.924;2023-07-24T04:14:07;6.68;;;4.40;;
49458;SDS011;35354;51.296;16.924;2023-07-24T04:16:32;6.38;;;5.10;;
49458;SDS011;35354;51.296;16.924;2023-07-24T04:18:57;9.18;;;5.00;;
49458;SDS011;35354;51.296;16.924;2023-07-24T04:21:23;10.02;;;5.15;;
49458;SDS011;35354;51.296;16.924;2023-07-24T04:23:48;9.23;;;5.60;;
49458;SDS011;35354;51.296;16.924;2023-07-24T04:26:13;7.20;;;5.60;;
49458;SDS011;35354;51.296;16.924;2023-07-24T04:28:39;6.80;;;4.75;;
49458;SDS011;35354;51.296;16.924;2023-07-24T04:31:04;7.20;;;4.90;;
49458;SDS011;35354;51.296;16.924;2023-07-24T04:33:29;6.55;;;4.30;;
49458;SDS011;35354;51.296;16.924;2023-07-24T04:35:55;8.73;;;5.35;;
49458;SDS011;35354;51.296;16.924;2023-07-24T04:38:20;6.28;;;4.63;;
49458;SDS011;35354;51.296;16.924;2023-07-24T04:40:46;7.93;;;5.05;;
49458;SDS011;35354;51.296;16.924;2023-07-24T04:43:11;7.80;;;4.70;;
49458;SDS011;35354;51.296;16.924;2023-07-24T04:45:37;6.60;;;5.03;;
49458;SDS011;35354;51.296;16.924;2023-07-24T04:48:02;6.50;;;4.63;;
49458;SDS011;35354;51.296;16.924;2023-07-24T04:50:28;5.18;;;4.57;;
49458;SDS011;35354;51.296;16.924;2023-07-24T04:52:54;8.63;;;5.03;;
49458;SDS011;35354;51.296;16.924;2023-07-24T04:55:19;5.53;;;4.68;;
49458;SDS011;35354;51.296;16.924;2023-07-24T04:57:45;6.32;;;5.40;;
49458;SDS011;35354;51.296;16.924;2023-07-24T05:00:11;8.40;;;5.72;;
49458;SDS011;35354;51.296;16.924;2023-07-24T05:02:37;6.40;;;5.07;;
49458;SDS011;35354;51.296;16.924;2023-07-24T05:05:02;6.97;;;5.18;;
49458;SDS011;35354;51.296;16.924;2023-07-24T05:07:27;7.28;;;5.47;;
49458;SDS011;35354;51.296;16.924;2023-07-24T05:09:53;6.53;;;4.95;;
49458;SDS011;35354;51.296;16.924;2023-07-24T05:12:18;7.25;;;4.90;;
49458;SDS011;35354;51.296;16.924;2023-07-24T05:14:43;8.27;;;5.40;;
49458;SDS011;35354;51.296;16.924;2023-07-24T05:17:09;10.18;;;5.03;;
49458;SDS011;35354;51.296;16.924;2023-07-24T05:19:34;6.78;;;5.22;;
49458;SDS011;35354;51.296;16.924;2023-07-24T05:21:59;6.00;;;5.22;;
49458;SDS011;35354;51.296;16.924;2023-07-24T05:24:24;6.40;;;5.10;;
49458;SDS011;35354;51.296;16.924;2023-07-24T05:26:50;7.57;;;5.45;;
49458;SDS011;35354;51.296;16.924;2023-07-24T05:29:15;7.65;;;4.50;;
49458;SDS011;35354;51.296;16.924;2023-07-24T05:31:40;6.55;;;4.90;;
49458;SDS011;35354;51.296;16.924;2023-07-24T05:34:06;6.68;;;4.75;;
49458;SDS011;35354;51.296;16.924;2023-07-24T05:36:31;6.65;;;4.53;;
49458;SDS011;35354;51.296;16.924;2023-07-24T05:38:56;7.03;;;5.03;;
49458;SDS011;35354;51.296;16.924;2023-07-24T05:41:22;7.38;;;4.68;;
49458;SDS011;35354;51.296;16.924;2023-07-24T05:43:48;7.03;;;5.57;;
49458;SDS011;35354;51.296;16.924;2023-07-24T05:46:13;7.30;;;5.10;;
49458;SDS011;35354;51.296;16.924;2023-07-24T05:48:39;6.90;;;5.35;;
49458;SDS011;35354;51.296;16.924;2023-07-24T05:51:04;7.63;;;5.28;;
49458;SDS011;35354;51.296;16.924;2023-07-24T05:53:29;5.78;;;5.07;;
49458;SDS011;35354;51.296;16.924;2023-07-24T05:55:58;7.40;;;5.57;;
49458;SDS011;35354;51.296;16.924;2023-07-24T05:58:25;8.20;;;5.03;;
49458;SDS011;35354;51.296;16.924;2023-07-24T06:00:51;6.30;;;4.70;;
49458;SDS011;35354;51.296;16.924;2023-07-24T06:03:16;6.18;;;5.30;;
49458;SDS011;35354;51.296;16.924;2023-07-24T06:05:41;7.03;;;5.28;;
49458;SDS011;35354;51.296;16.924;2023-07-24T06:08:07;6.95;;;5.30;;
49458;SDS011;35354;51.296;16.924;2023-07-24T06:10:33;8.07;;;5.22;;
49458;SDS011;35354;51.296;16.924;2023-07-24T06:12:59;4.93;;;4.05;;
49458;SDS011;35354;51.296;16.924;2023-07-24T06:15:24;6.07;;;4.95;;
49458;SDS011;35354;51.296;16.924;2023-07-24T06:17:50;7.28;;;5.25;;
49458;SDS011;35354;51.296;16.924;2023-07-24T06:20:15;7.28;;;4.90;;
49458;SDS011;35354;51.296;16.924;2023-07-24T06:22:41;6.32;;;5.18;;
49458;SDS011;35354;51.296;16.924;2023-07-24T06:25:06;7.50;;;4.82;;
49458;SDS011;35354;51.296;16.924;2023-07-24T06:27:32;8.70;;;5.57;;
49458;SDS011;35354;51.296;16.924;2023-07-24T06:29:57;6.45;;;5.65;;
49458;SDS011;35354;51.296;16.924;2023-07-24T06:32:23;6.47;;;4.88;;
49458;SDS011;35354;51.296;16.924;2023-07-24T06:34:48;6.30;;;5.10;;
49458;SDS011;35354;51.296;16.924;2023-07-24T06:37:13;7.90;;;6.10;;
49458;SDS011;35354;51.296;16.924;2023-07-24T06:39:39;7.43;;;6.20;;
49458;SDS011;35354;51.296;16.924;2023-07-24T06:42:04;9.90;;;5.63;;
49458;SDS011;35354;51.296;16.924;2023-07-24T06:44:29;7.35;;;5.22;;
49458;SDS011;35354;51.296;16.924;2023-07-24T06:46:55;8.10;;;5.20;;
49458;SDS011;35354;51.296;16.924;2023-07-24T06:49:20;10.40;;;6.03;;
49458;SDS011;35354;51.296;16.924;2023-07-24T06:51:45;6.75;;;5.40;;
49458;SDS011;35354;51.296;16.924;2023-07-24T06:54:11;7.53;;;5.65;;
49458;SDS011;35354;51.296;16.924;2023-07-24T06:56:36;8.40;;;5.82;;
49458;SDS011;35354;51.296;16.924;2023-07-24T06:59:02;7.80;;;5.15;;
49458;SDS011;35354;51.296;16.924;2023-07-24T07:01:27;7.88;;;5.18;;
49458;SDS011;35354;51.296;16.924;2023-07-24T07:03:53;7.22;;;5.78;;
49458;SDS011;35354;51.296;16.924;2023-07-24T07:06:18;8.65;;;6.18;;
49458;SDS011;35354;51.296;16.924;2023-07-24T07:08:43;9.70;;;6.35;;
49458;SDS011;35354;51.296;16.924;2023-07-24T07:11:09;6.38;;;5.38;;
49458;SDS011;35354;51.296;16.924;2023-07-24T07:13:34;6.78;;;5.25;;
49458;SDS011;35354;51.296;16.924;2023-07-24T07:15:59;6.47;;;5.35;;
49458;SDS011;35354;51.296;16.924;2023-07-24T07:18:25;6.10;;;5.28;;
49458;SDS011;35354;51.296;16.924;2023-07-24T07:20:51;7.43;;;5.43;;
49458;SDS011;35354;51.296;16.924;2023-07-24T07:23:17;8.13;;;5.70;;
49458;SDS011;35354;51.296;16.924;2023-07-24T07:25:43;6.35;;;5.68;;
49458;SDS011;35354;51.296;16.924;2023-07-24T07:28:12;6.07;;;5.47;;
49458;SDS011;35354;51.296;16.924;2023-07-24T07:30:38;6.88;;;5.97;;
49458;SDS011;35354;51.296;16.924;2023-07-24T07:33:03;8.23;;;5.38;;
49458;SDS011;35354;51.296;16.924;2023-07-24T07:35:31;6.40;;;5.15;;
49458;SDS011;35354;51.296;16.924;2023-07-24T07:37:56;6.00;;;5.45;;
49458;SDS011;35354;51.296;16.924;2023-07-24T07:40:22;6.13;;;5.25;;
49458;SDS011;35354;51.296;16.924;2023-07-24T07:42:48;6.28;;;5.32;;
49458;SDS011;35354;51.296;16.924;2023-07-24T07:45:13;5.85;;;5.25;;
49458;SDS011;35354;51.296;16.924;2023-07-24T07:47:39;7.07;;;5.50;;
49458;SDS011;35354;51.296;16.924;2023-07-24T07:50:04;5.85;;;5.32;;
49458;SDS011;35354;51.296;16.924;2023-07-24T07:52:30;5.90;;;5.35;;
49458;SDS011;35354;51.296;16.924;2023-07-24T07:54:55;5.25;;;4.78;;
49458;SDS011;35354;51.296;16.924;2023-07-24T07:57:20;5.82;;;5.32;;
49458;SDS011;35354;51.296;16.924;2023-07-24T07:59:46;6.32;;;5.63;;
49458;SDS011;35354;51.296;16.924;2023-07-24T08:02:11;5.97;;;5.43;;
49458;SDS011;35354;51.296;16.924;2023-07-24T08:04:36;5.85;;;5.10;;
49458;SDS011;35354;51.296;16.924;2023-07-24T08:07:02;5.85;;;5.38;;
49458;SDS011;35354;51.296;16.924;2023-07-24T08:09:27;5.80;;;4.82;;
49458;SDS011;35354;51.296;16.924;2023-07-24T08:11:53;5.95;;;5.45;;
49458;SDS011;35354;51.296;16.924;2023-07-24T08:14:18;6.35;;;4.90;;
49458;SDS011;35354;51.296;16.924;2023-07-24T08:16:44;6.22;;;5.57;;
49458;SDS011;35354;51.296;16.924;2023-07-24T08:19:09;6.53;;;4.95;;
49458;SDS011;35354;51.296;16.924;2023-07-24T08:21:34;6.60;;;5.15;;
49458;SDS011;35354;51.296;16.924;2023-07-24T08:24:00;5.55;;;5.05;;
49458;SDS011;35354;51.296;16.924;2023-07-24T08:26:27;4.75;;;4.35;;
49458;SDS011;35354;51.296;16.924;2023-07-24T08:28:53;5.07;;;4.57;;
49458;SDS011;35354;51.296;16.924;2023-07-24T08:31:18;4.82;;;4.43;;
49458;SDS011;35354;51.296;16.924;2023-07-24T08:33:44;5.63;;;4.97;;
49458;SDS011;35354;51.296;16.924;2023-07-24T08:36:09;5.60;;;5.07;;
49458;SDS011;35354;51.296;16.924;2023-07-24T08:38:36;5.00;;;4.60;;
49458;SDS011;35354;51.296;16.924;2023-07-24T08:41:09;4.60;;;4.20;;
49458;SDS011;35354;51.296;16.924;2023-07-24T08:43:36;5.45;;;4.55;;
49458;SDS011;35354;51.296;16.924;2023-07-24T08:46:03;5.57;;;4.85;;
49458;SDS011;35354;51.296;16.924;2023-07-24T08:48:30;5.22;;;4.72;;
49458;SDS011;35354;51.296;16.924;2023-07-24T08:51:00;4.85;;;4.35;;
49458;SDS011;35354;51.296;16.924;2023-07-24T08:53:27;6.22;;;4.65;;
49458;SDS011;35354;51.296;16.924;2023-07-24T08:55:54;6.72;;;4.85;;
49458;SDS011;35354;51.296;16.924;2023-07-24T08:58:21;4.90;;;4.40;;
49458;SDS011;35354;51.296;16.924;2023-07-24T09:00:46;6.03;;;4.63;;
49458;SDS011;35354;51.296;16.924;2023-07-24T09:03:11;5.70;;;4.47;;
49458;SDS011;35354;51.296;16.924;2023-07-24T09:05:37;5.15;;;4.50;;
49458;SDS011;35354;51.296;16.924;2023-07-24T09:08:02;5.65;;;4.15;;
49458;SDS011;35354;51.296;16.924;2023-07-24T09:10:28;6.22;;;4.55;;
49458;SDS011;35354;51.296;16.924;2023-07-24T09:12:54;5.63;;;4.80;;
49458;SDS011;35354;51.296;16.924;2023-07-24T09:15:20;5.03;;;4.55;;
49458;SDS011;35354;51.296;16.924;2023-07-24T09:17:51;6.35;;;5.03;;
49458;SDS011;35354;51.296;16.924;2023-07-24T09:20:18;6.15;;;4.55;;
49458;SDS011;35354;51.296;16.924;2023-07-24T09:22:48;5.22;;;4.68;;
49458;SDS011;35354;51.296;16.924;2023-07-24T09:25:14;6.87;;;5.00;;
49458;SDS011;35354;51.296;16.924;2023-07-24T09:27:39;4.85;;;4.45;;
49458;SDS011;35354;51.296;16.924;2023-07-24T09:30:11;5.43;;;4.68;;
49458;SDS011;35354;51.296;16.924;2023-07-24T09:32:39;5.55;;;4.78;;
49458;SDS011;35354;51.296;16.924;2023-07-24T09:35:15;4.57;;;4.13;;
49458;SDS011;35354;51.296;16.924;2023-07-24T09:37:42;5.88;;;5.28;;
49458;SDS011;35354;51.296;16.924;2023-07-24T09:40:08;6.15;;;5.28;;
49458;SDS011;35354;51.296;16.924;2023-07-24T09:42:35;5.22;;;4.72;;
49458;SDS011;35354;51.296;16.924;2023-07-24T09:45:01;5.10;;;4.60;;
49458;SDS011;35354;51.296;16.924;2023-07-24T09:47:28;4.95;;;4.45;;
49458;SDS011;35354;51.296;16.924;2023-07-24T09:49:53;5.25;;;4.75;;
49458;SDS011;35354;51.296;16.924;2023-07-24T09:52:19;5.00;;;4.45;;
49458;SDS011;35354;51.296;16.924;2023-07-24T09:54:55;6.38;;;5.78;;
49458;SDS011;35354;51.296;16.924;2023-07-24T09:57:30;6.07;;;5.47;;
49458;SDS011;35354;51.296;16.924;2023-07-24T09:59:56;5.68;;;4.97;;
49458;SDS011;35354;51.296;16.924;2023-07-24T10:02:22;5.70;;;5.00;;
49458;SDS011;35354;51.296;16.924;2023-07-24T10:04:48;6.35;;;5.15;;
49458;SDS011;35354;51.296;16.924;2023-07-24T10:07:14;5.47;;;4.97;;
49458;SDS011;35354;51.296;16.924;2023-07-24T10:09:41;6.20;;;5.60;;
49458;SDS011;35354;51.296;16.924;2023-07-24T10:12:08;7.85;;;5.90;;
49458;SDS011;35354;51.296;16.924;2023-07-24T10:14:34;5.40;;;4.90;;
49458;SDS011;35354;51.296;16.924;2023-07-24T10:17:01;5.63;;;5.13;;
49458;SDS011;35354;51.296;16.924;2023-07-24T10:19:35;5.47;;;4.97;;
49458;SDS011;35354;51.296;16.924;2023-07-24T10:22:01;5.32;;;4.82;;
49458;SDS011;35354;51.296;16.924;2023-07-24T10:24:31;5.90;;;4.78;;
49458;SDS011;35354;51.296;16.924;2023-07-24T10:26:58;5.70;;;4.93;;
49458;SDS011;35354;51.296;16.924;2023-07-24T10:29:24;5.40;;;4.90;;
49458;SDS011;35354;51.296;16.924;2023-07-24T10:31:54;5.05;;;4.55;;
49458;SDS011;35354;51.296;16.924;2023-07-24T10:34:20;5.70;;;4.75;;
49458;SDS011;35354;51.296;16.924;2023-07-24T10:36:46;5.00;;;4.50;;
49458;SDS011;35354;51.296;16.924;2023-07-24T10:39:15;6.15;;;5.40;;
49458;SDS011;35354;51.296;16.924;2023-07-24T10:41:43;4.75;;;4.35;;
49458;SDS011;35354;51.296;16.924;2023-07-24T10:44:10;5.03;;;4.53;;
49458;SDS011;35354;51.296;16.924;2023-07-24T10:46:36;5.13;;;4.63;;
49458;SDS011;35354;51.296;16.924;2023-07-24T10:49:03;5.22;;;4.75;;
49458;SDS011;35354;51.296;16.924;2023-07-24T10:51:29;5.43;;;4.93;;
49458;SDS011;35354;51.296;16.924;2023-07-24T10:53:57;5.50;;;4.85;;
49458;SDS011;35354;51.296;16.924;2023-07-24T10:56:22;6.40;;;5.15;;
49458;SDS011;35354;51.296;16.924;2023-07-24T10:58:48;5.82;;;4.53;;
49458;SDS011;35354;51.296;16.924;2023-07-24T11:01:13;5.65;;;5.13;;
49458;SDS011;35354;51.296;16.924;2023-07-24T11:03:40;6.18;;;4.88;;
49458;SDS011;35354;51.296;16.924;2023-07-24T11:06:17;5.03;;;4.63;;
49458;SDS011;35354;51.296;16.924;2023-07-24T11:08:56;5.65;;;5.15;;
49458;SDS011;35354;51.296;16.924;2023-07-24T11:11:33;6.07;;;5.47;;
49458;SDS011;35354;51.296;16.924;2023-07-24T11:14:03;6.45;;;5.07;;
49458;SDS011;35354;51.296;16.924;2023-07-24T11:16:29;5.28;;;4.78;;
49458;SDS011;35354;51.296;16.924;2023-07-24T11:18:58;5.43;;;4.78;;
49458;SDS011;35354;51.296;16.924;2023-07-24T11:21:23;5.65;;;5.15;;
49458;SDS011;35354;51.296;16.924;2023-07-24T11:23:51;5.97;;;5.43;;
49458;SDS011;35354;51.296;16.924;2023-07-24T11:26:18;7.55;;;6.10;;
49458;SDS011;35354;51.296;16.924;2023-07-24T11:28:45;5.93;;;5.32;;
49458;SDS011;35354;51.296;16.924;2023-07-24T11:31:10;7.43;;;5.18;;
49458;SDS011;35354;51.296;16.924;2023-07-24T11:33:36;6.50;;;5.15;;
49458;SDS011;35354;51.296;16.924;2023-07-24T11:36:02;6.90;;;6.20;;
49458;SDS011;35354;51.296;16.924;2023-07-24T11:38:28;7.03;;;6.28;;
49458;SDS011;35354;51.296;16.924;2023-07-24T11:40:54;6.88;;;5.45;;
49458;SDS011;35354;51.296;16.924;2023-07-24T11:43:24;6.95;;;6.05;;
49458;SDS011;35354;51.296;16.924;2023-07-24T11:45:51;7.53;;;6.15;;
49458;SDS011;35354;51.296;16.924;2023-07-24T11:48:18;8.20;;;6.63;;
49458;SDS011;35354;51.296;16.924;2023-07-24T11:50:45;8.30;;;7.10;;
49458;SDS011;35354;51.296;16.924;2023-07-24T11:53:24;8.37;;;6.90;;
49458;SDS011;35354;51.296;16.924;2023-07-24T11:55:52;7.35;;;6.60;;
49458;SDS011;35354;51.296;16.924;2023-07-24T11:58:19;7.88;;;6.32;;
49458;SDS011;35354;51.296;16.924;2023-07-24T12:00:45;8.82;;;7.10;;
49458;SDS011;35354;51.296;16.924;2023-07-24T12:03:12;6.55;;;5.95;;
49458;SDS011;35354;51.296;16.924;2023-07-24T12:05:38;8.15;;;6.63;;
49458;SDS011;35354;51.296;16.924;2023-07-24T12:08:04;7.95;;;7.15;;
49458;SDS011;35354;51.296;16.924;2023-07-24T12:10:30;7.55;;;6.85;;
49458;SDS011;35354;51.296;16.924;2023-07-24T12:12:58;7.45;;;6.70;;
49458;SDS011;35354;51.296;16.924;2023-07-24T12:15:24;7.50;;;6.40;;
49458;SDS011;35354;51.296;16.924;2023-07-24T12:17:51;7.10;;;6.40;;
49458;SDS011;35354;51.296;16.924;2023-07-24T12:20:16;9.40;;;6.57;;
49458;SDS011;35354;51.296;16.924;2023-07-24T12:22:42;8.63;;;6.57;;
49458;SDS011;35354;51.296;16.924;2023-07-24T12:25:07;7.70;;;6.53;;
49458;SDS011;35354;51.296;16.924;2023-07-24T12:27:33;7.05;;;6.35;;
49458;SDS011;35354;51.296;16.924;2023-07-24T12:29:58;9.32;;;6.55;;
49458;SDS011;35354;51.296;16.924;2023-07-24T12:32:24;8.05;;;6.93;;
49458;SDS011;35354;51.296;16.924;2023-07-24T12:34:50;8.35;;;7.05;;
49458;SDS011;35354;51.296;16.924;2023-07-24T12:37:17;8.98;;;7.30;;
49458;SDS011;35354;51.296;16.924;2023-07-24T12:39:46;9.50;;;7.63;;
49458;SDS011;35354;51.296;16.924;2023-07-24T12:42:12;7.20;;;6.38;;
49458;SDS011;35354;51.296;16.924;2023-07-24T12:44:38;9.70;;;7.22;;
49458;SDS011;35354;51.296;16.924;2023-07-24T12:47:04;7.60;;;6.80;;
49458;SDS011;35354;51.296;16.924;2023-07-24T12:49:30;9.57;;;7.47;;
49458;SDS011;35354;51.296;16.924;2023-07-24T12:51:55;9.45;;;8.27;;
49458;SDS011;35354;51.296;16.924;2023-07-24T12:54:21;9.07;;;8.18;;
49458;SDS011;35354;51.296;16.924;2023-07-24T12:56:47;10.65;;;7.80;;
49458;SDS011;35354;51.296;16.924;2023-07-24T12:59:13;11.85;;;8.95;;
49458;SDS011;35354;51.296;16.924;2023-07-24T13:01:38;11.52;;;9.13;;
49458;SDS011;35354;51.296;16.924;2023-07-24T13:04:03;12.52;;;8.43;;
49458;SDS011;35354;51.296;16.924;2023-07-24T13:06:29;8.95;;;8.05;;
49458;SDS011;35354;51.296;16.924;2023-07-24T13:08:54;9.93;;;8.88;;
49458;SDS011;35354;51.296;16.924;2023-07-24T13:11:19;9.25;;;8.25;;
49458;SDS011;35354;51.296;16.924;2023-07-24T13:13:45;9.85;;;8.60;;
49458;SDS011;35354;51.296;16.924;2023-07-24T13:16:10;10.38;;;9.27;;
49458;SDS011;35354;51.296;16.924;2023-07-24T13:18:36;9.65;;;8.38;;
49458;SDS011;35354;51.296;16.924;2023-07-24T13:21:01;9.27;;;8.38;;
49458;SDS011;35354;51.296;16.924;2023-07-24T13:23:26;11.90;;;8.77;;
49458;SDS011;35354;51.296;16.924;2023-07-24T13:25:52;9.95;;;8.95;;
49458;SDS011;35354;51.296;16.924;2023-07-24T13:28:18;9.73;;;8.35;;
49458;SDS011;35354;51.296;16.924;2023-07-24T13:30:43;9.38;;;8.40;;
49458;SDS011;35354;51.296;16.924;2023-07-24T13:33:09;8.93;;;8.02;;
49458;SDS011;35354;51.296;16.924;2023-07-24T13:35:35;10.13;;;9.13;;
49458;SDS011;35354;51.296;16.924;2023-07-24T13:38:00;11.98;;;9.18;;
49458;SDS011;35354;51.296;16.924;2023-07-24T13:40:25;10.30;;;9.20;;
49458;SDS011;35354;51.296;16.924;2023-07-24T13:42:51;10.57;;;8.70;;
49458;SDS011;35354;51.296;16.924;2023-07-24T13:45:16;10.70;;;9.25;;
49458;SDS011;35354;51.296;16.924;2023-07-24T13:47:42;11.40;;;8.98;;
49458;SDS011;35354;51.296;16.924;2023-07-24T13:50:07;10.18;;;9.00;;
49458;SDS011;35354;51.296;16.924;2023-07-24T13:52:33;11.40;;;9.20;;
49458;SDS011;35354;51.296;16.924;2023-07-24T13:54:58;11.32;;;8.98;;
49458;SDS011;35354;51.296;16.924;2023-07-24T13:57:23;9.70;;;8.50;;
49458;SDS011;35354;51.296;16.924;2023-07-24T13:59:49;10.40;;;8.40;;
49458;SDS011;35354;51.296;16.924;2023-07-24T14:02:14;10.40;;;8.45;;
49458;SDS011;35354;51.296;16.924;2023-07-24T14:04:39;11.18;;;7.95;;
49458;SDS011;35354;51.296;16.924;2023-07-24T14:07:05;11.43;;;8.85;;
49458;SDS011;35354;51.296;16.924;2023-07-24T14:09:30;9.68;;;7.93;;
49458;SDS011;35354;51.296;16.924;2023-07-24T14:11:57;9.43;;;8.15;;
49458;SDS011;35354;51.296;16.924;2023-07-24T14:14:23;10.30;;;8.80;;
49458;SDS011;35354;51.296;16.924;2023-07-24T14:16:49;9.48;;;8.15;;
49458;SDS011;35354;51.296;16.924;2023-07-24T14:19:15;11.30;;;8.20;;
49458;SDS011;35354;51.296;16.924;2023-07-24T14:21:40;10.68;;;8.18;;
49458;SDS011;35354;51.296;16.924;2023-07-24T14:24:06;9.75;;;8.27;;
49458;SDS011;35354;51.296;16.924;2023-07-24T14:26:31;11.93;;;8.00;;
49458;SDS011;35354;51.296;16.924;2023-07-24T14:28:57;10.18;;;8.30;;